createdAt,value
2023-01-10T00:01:24.232Z,62.30
2023-01-10T00:03:50.696Z,62.10
2023-01-10T00:06:17.164Z,62.40
2023-01-10T00:08:43.654Z,62.40
2023-01-10T00:11:10.154Z,62.40
2023-01-10T00:13:36.623Z,62.40
2023-01-10T00:16:03.129Z,62.40
2023-01-10T00:18:29.615Z,62.50
2023-01-10T00:20:56.097Z,62.50
2023-01-10T00:23:24.898Z,62.40
2023-01-10T00:25:51.384Z,62.40
2023-01-10T00:28:17.843Z,62.30
2023-01-10T00:30:44.322Z,62.10
2023-01-10T00:33:10.799Z,62.40
2023-01-10T00:35:37.281Z,62.30
2023-01-10T00:38:03.750Z,62.30
2023-01-10T00:40:30.252Z,62.00
2023-01-10T00:42:56.738Z,62.20
2023-01-10T00:45:23.215Z,62.10
2023-01-10T00:47:49.683Z,62.00
2023-01-10T00:50:16.163Z,62.10
2023-01-10T00:52:42.636Z,62.00
2023-01-10T00:55:09.140Z,62.10
2023-01-10T00:57:35.645Z,62.10
2023-01-10T01:00:02.139Z,62.30
2023-01-10T01:02:28.658Z,62.10
2023-01-10T01:04:55.153Z,62.00
2023-01-10T01:07:21.635Z,62.00
2023-01-10T01:09:48.111Z,62.10
2023-01-10T01:12:14.611Z,61.90
2023-01-10T01:14:41.100Z,62.00
2023-01-10T01:17:07.573Z,61.90
2023-01-10T01:19:34.036Z,61.90
2023-01-10T01:22:00.522Z,62.00
2023-01-10T01:24:27.005Z,62.00
2023-01-10T01:26:53.489Z,62.10
2023-01-10T01:29:19.969Z,62.10
2023-01-10T01:31:46.438Z,61.80
2023-01-10T01:34:13.032Z,62.20
2023-01-10T01:36:39.553Z,62.00
2023-01-10T01:39:06.010Z,62.10
2023-01-10T01:41:32.488Z,62.10
2023-01-10T01:43:58.976Z,62.40
2023-01-10T01:46:25.455Z,62.20
2023-01-10T01:48:52.055Z,61.90
2023-01-10T01:51:18.585Z,61.90
2023-01-10T01:53:45.188Z,61.90
2023-01-10T01:56:11.659Z,61.60
2023-01-10T01:58:38.138Z,61.70
2023-01-10T02:01:04.634Z,62.80
2023-01-10T02:03:31.173Z,62.00
2023-01-10T02:05:57.736Z,62.00
2023-01-10T02:08:24.206Z,61.90
2023-01-10T02:10:50.696Z,62.00
2023-01-10T02:13:17.186Z,62.00
2023-01-10T02:15:43.712Z,61.90
2023-01-10T02:18:10.226Z,61.80
2023-01-10T02:20:36.748Z,61.60
2023-01-10T02:23:03.229Z,61.60
2023-01-10T02:25:29.711Z,61.80
2023-01-10T02:28:01.212Z,61.70
2023-01-10T02:30:27.711Z,61.90
2023-01-10T02:33:04.493Z,61.70
2023-01-10T02:35:31.437Z,62.00
2023-01-10T02:37:57.925Z,61.80
2023-01-10T02:40:24.401Z,61.60
2023-01-10T02:42:50.972Z,61.60
2023-01-10T02:45:17.617Z,61.60
2023-01-10T02:47:44.084Z,61.80
2023-01-10T02:50:10.565Z,61.70
2023-01-10T02:52:37.066Z,61.60
2023-01-10T02:55:03.537Z,61.80
2023-01-10T02:57:30.016Z,61.50
2023-01-10T02:59:56.514Z,62.30
2023-01-10T03:02:22.989Z,61.70
2023-01-10T03:04:49.541Z,61.50
2023-01-10T03:07:16.065Z,61.70
2023-01-10T03:09:42.521Z,61.70
2023-01-10T03:12:08.999Z,61.80
2023-01-10T03:14:35.591Z,61.50
2023-01-10T03:17:03.982Z,61.60
2023-01-10T03:19:31.179Z,61.80
2023-01-10T03:21:57.670Z,61.60
2023-01-10T03:24:24.141Z,61.40
2023-01-10T03:26:50.611Z,61.50
2023-01-10T03:29:17.095Z,61.30
2023-01-10T03:31:43.647Z,61.40
2023-01-10T03:34:10.121Z,61.30
2023-01-10T03:36:36.593Z,61.40
2023-01-10T03:39:03.077Z,61.30
2023-01-10T03:41:29.589Z,61.60
2023-01-10T03:43:56.085Z,61.40
2023-01-10T03:46:22.628Z,61.40
2023-01-10T03:48:49.117Z,61.60
2023-01-10T03:51:15.627Z,62.10
2023-01-10T03:53:42.119Z,61.40
2023-01-10T03:56:08.633Z,61.20
2023-01-10T03:58:35.120Z,61.40
2023-01-10T04:01:01.749Z,61.60
2023-01-10T04:03:28.317Z,61.20
2023-01-10T04:05:54.817Z,61.10
2023-01-10T04:08:21.308Z,61.30
2023-01-10T04:10:47.812Z,61.40
2023-01-10T04:13:14.289Z,61.00
2023-01-10T04:15:40.778Z,61.20
2023-01-10T04:18:07.251Z,61.20
2023-01-10T04:20:33.744Z,61.60
2023-01-10T04:23:00.237Z,61.10
2023-01-10T04:25:26.709Z,61.10
2023-01-10T04:27:53.206Z,61.20
2023-01-10T04:30:19.684Z,61.20
2023-01-10T04:32:46.164Z,61.10
2023-01-10T04:35:12.642Z,61.00
2023-01-10T04:37:39.118Z,60.90
2023-01-10T04:40:05.605Z,60.60
2023-01-10T04:42:32.082Z,60.80
2023-01-10T04:44:58.549Z,60.90
2023-01-10T04:47:25.036Z,60.90
2023-01-10T04:49:51.503Z,60.60
2023-01-10T04:52:18.003Z,60.80
2023-01-10T04:54:44.490Z,60.60
2023-01-10T04:57:10.987Z,60.60
2023-01-10T04:59:37.446Z,60.50
2023-01-10T05:02:04.046Z,61.40
2023-01-10T05:04:30.560Z,60.50
2023-01-10T05:06:57.035Z,60.50
2023-01-10T05:09:23.493Z,60.70
2023-01-10T05:11:49.959Z,60.80
2023-01-10T05:14:16.443Z,60.60
2023-01-10T05:16:42.967Z,60.90
2023-01-10T05:19:09.602Z,60.90
2023-01-10T05:21:36.106Z,60.90
2023-01-10T05:24:02.567Z,60.60
2023-01-10T05:26:29.093Z,60.50
2023-01-10T05:28:55.594Z,60.60
2023-01-10T05:31:22.162Z,60.50
2023-01-10T05:33:48.651Z,60.50
2023-01-10T05:36:15.132Z,60.50
2023-01-10T05:38:41.629Z,60.20
2023-01-10T05:41:08.123Z,60.50
2023-01-10T05:43:34.607Z,60.70
2023-01-10T05:46:01.199Z,60.30
2023-01-10T05:48:27.691Z,60.30
2023-01-10T05:50:54.158Z,60.20
2023-01-10T05:53:20.660Z,60.30
2023-01-10T05:55:47.131Z,60.50
2023-01-10T05:58:13.624Z,60.40
2023-01-10T06:00:40.105Z,60.30
2023-01-10T06:03:06.764Z,60.50
2023-01-10T06:05:37.300Z,60.40
2023-01-10T06:08:03.780Z,60.40
2023-01-10T06:10:30.200Z,60.50
2023-01-10T06:12:56.728Z,61.30
2023-01-10T06:15:23.206Z,60.30
2023-01-10T06:17:49.688Z,60.10
2023-01-10T06:20:16.151Z,60.40
2023-01-10T06:22:42.653Z,60.30
2023-01-10T06:25:09.170Z,60.10
2023-01-10T06:27:35.640Z,60.30
2023-01-10T06:30:02.135Z,60.20
2023-01-10T06:32:28.654Z,60.10
2023-01-10T06:34:55.139Z,59.90
2023-01-10T06:37:21.613Z,59.80
2023-01-10T06:39:48.077Z,60.00
2023-01-10T06:42:14.540Z,60.10
2023-01-10T06:44:41.016Z,60.00
2023-01-10T06:47:08.131Z,60.00
2023-01-10T06:49:34.619Z,59.80
2023-01-10T06:52:01.085Z,59.80
2023-01-10T06:54:27.591Z,59.90
2023-01-10T06:56:55.238Z,60.00
2023-01-10T06:59:21.716Z,60.00
2023-01-10T07:01:48.290Z,60.00
2023-01-10T07:04:14.905Z,60.00
2023-01-10T07:06:41.389Z,60.00
2023-01-10T07:09:07.881Z,59.80
2023-01-10T07:11:34.340Z,59.80
2023-01-10T07:14:00.835Z,59.70
2023-01-10T07:16:27.332Z,59.80
2023-01-10T07:18:53.843Z,59.80
2023-01-10T07:21:20.324Z,60.00
2023-01-10T07:23:46.857Z,59.80
2023-01-10T07:26:19.485Z,59.60
2023-01-10T07:28:49.298Z,59.60
2023-01-10T07:31:15.778Z,60.00
2023-01-10T07:33:42.260Z,59.90
2023-01-10T07:36:08.713Z,59.80
2023-01-10T07:38:35.186Z,59.60
2023-01-10T07:41:01.694Z,59.70
2023-01-10T07:43:28.165Z,59.60
2023-01-10T07:45:54.661Z,59.80
2023-01-10T07:48:31.467Z,59.70
2023-01-10T07:50:57.961Z,59.60
2023-01-10T07:53:24.461Z,59.50
2023-01-10T07:55:50.967Z,59.50
2023-01-10T07:58:17.434Z,59.60
2023-01-10T08:00:43.905Z,59.60
2023-01-10T08:03:10.510Z,59.50
2023-01-10T08:05:37.089Z,59.80
2023-01-10T08:08:03.567Z,59.70
2023-01-10T08:10:30.066Z,59.60
2023-01-10T08:12:59.471Z,59.70
2023-01-10T08:15:28.069Z,59.60
2023-01-10T08:17:54.631Z,59.80
2023-01-10T08:20:21.102Z,59.80
2023-01-10T08:22:47.557Z,59.60
2023-01-10T08:25:14.043Z,59.60
2023-01-10T08:27:40.512Z,59.70
2023-01-10T08:30:06.995Z,59.70
2023-01-10T08:32:33.485Z,59.80
2023-01-10T08:34:59.948Z,59.80
2023-01-10T08:37:26.443Z,59.70
2023-01-10T08:39:52.914Z,59.70
2023-01-10T08:42:19.440Z,59.60
2023-01-10T08:44:45.927Z,59.90
2023-01-10T08:47:13.373Z,59.60
2023-01-10T08:49:39.856Z,59.70
2023-01-10T08:52:06.335Z,59.70
2023-01-10T08:54:32.814Z,59.70
2023-01-10T08:56:59.297Z,59.80
2023-01-10T08:59:25.780Z,59.60
2023-01-10T09:01:52.322Z,59.50
2023-01-10T09:04:18.805Z,59.50
2023-01-10T09:06:45.295Z,59.60
2023-01-10T09:09:11.774Z,59.60
2023-01-10T09:11:39.972Z,59.60
2023-01-10T09:14:07.646Z,59.60
2023-01-10T09:16:34.125Z,59.70
2023-01-10T09:19:00.622Z,59.60
2023-01-10T09:21:27.106Z,59.70
2023-01-10T09:23:53.592Z,59.60
2023-01-10T09:26:20.078Z,59.60
2023-01-10T09:28:48.805Z,59.70
2023-01-10T09:31:15.478Z,59.40
2023-01-10T09:33:47.117Z,59.70
2023-01-10T09:36:14.072Z,59.60
2023-01-10T09:38:40.562Z,59.50
2023-01-10T09:41:07.398Z,59.40
2023-01-10T09:43:33.896Z,59.60
2023-01-10T09:46:00.407Z,59.60
2023-01-10T09:48:26.887Z,59.60
2023-01-10T09:50:53.572Z,59.60
2023-01-10T09:53:20.046Z,59.60
2023-01-10T09:55:46.550Z,59.80
2023-01-10T09:58:13.021Z,59.60
2023-01-10T10:00:40.412Z,59.60
2023-01-10T10:03:07.006Z,59.50
2023-01-10T10:05:33.536Z,59.40
2023-01-10T10:07:59.997Z,59.50
2023-01-10T10:10:26.501Z,59.40
2023-01-10T10:12:52.980Z,59.50
2023-01-10T10:15:19.446Z,59.40
2023-01-10T10:17:45.931Z,59.60
2023-01-10T10:20:12.555Z,59.60
2023-01-10T10:22:39.072Z,59.70
2023-01-10T10:25:05.560Z,59.60
2023-01-10T10:27:32.039Z,59.60
2023-01-10T10:29:58.503Z,59.60
2023-01-10T10:32:25.002Z,59.70
2023-01-10T10:34:51.477Z,59.50
2023-01-10T10:37:17.981Z,59.90
2023-01-10T10:39:44.445Z,59.80
2023-01-10T10:42:10.928Z,59.70
2023-01-10T10:44:37.407Z,60.00
2023-01-10T10:47:03.908Z,59.90
2023-01-10T10:49:30.382Z,59.70
2023-01-10T10:51:56.864Z,59.60
2023-01-10T10:54:23.329Z,59.50
2023-01-10T10:56:49.817Z,59.60
2023-01-10T10:59:16.311Z,59.40
2023-01-10T11:01:42.902Z,59.40
2023-01-10T11:04:09.444Z,59.60
2023-01-10T11:06:35.922Z,59.60
2023-01-10T11:09:02.400Z,59.50
2023-01-10T11:11:28.895Z,59.70
2023-01-10T11:13:55.383Z,59.60
2023-01-10T11:16:22.018Z,59.80
2023-01-10T11:18:49.430Z,59.70
2023-01-10T11:21:15.921Z,59.50
2023-01-10T11:23:42.407Z,59.40
2023-01-10T11:26:08.903Z,59.60
2023-01-10T11:28:35.392Z,59.50
2023-01-10T11:31:01.866Z,59.80
2023-01-10T11:33:28.341Z,59.60
2023-01-10T11:35:54.818Z,59.60
2023-01-10T11:38:21.303Z,59.60
2023-01-10T11:40:47.782Z,59.60
2023-01-10T11:43:14.255Z,59.60
2023-01-10T11:45:40.762Z,59.50
2023-01-10T11:48:07.295Z,59.70
2023-01-10T11:50:33.797Z,59.70
2023-01-10T11:53:00.273Z,59.50
2023-01-10T11:55:26.748Z,59.60
2023-01-10T11:57:53.251Z,59.50
2023-01-10T12:00:19.704Z,59.60
2023-01-10T12:02:46.159Z,59.70
2023-01-10T12:05:12.690Z,59.70
2023-01-10T12:07:39.231Z,59.80
2023-01-10T12:10:07.488Z,59.50
2023-01-10T12:12:33.969Z,59.70
2023-01-10T12:15:00.469Z,59.60
2023-01-10T12:17:26.950Z,59.90
2023-01-10T12:19:53.470Z,59.60
2023-01-10T12:22:19.975Z,59.60
2023-01-10T12:24:46.453Z,59.80
2023-01-10T12:27:12.928Z,59.80
2023-01-10T12:29:39.426Z,59.90
2023-01-10T12:32:05.931Z,59.70
2023-01-10T12:34:32.418Z,59.80
2023-01-10T12:36:58.928Z,59.70
2023-01-10T12:39:25.405Z,59.70
2023-01-10T12:41:51.879Z,59.40
2023-01-10T12:44:18.351Z,59.40
2023-01-10T12:47:05.979Z,59.30
2023-01-10T12:49:31.267Z,59.60
2023-01-10T12:51:57.735Z,59.40
2023-01-10T12:54:24.230Z,59.40
2023-01-10T12:56:50.699Z,59.50
2023-01-10T12:59:21.514Z,59.50
2023-01-10T13:01:52.835Z,59.50
2023-01-10T13:04:19.667Z,59.60
2023-01-10T13:06:46.140Z,59.70
2023-01-10T13:09:12.678Z,59.60
2023-01-10T13:11:39.165Z,59.50
2023-01-10T13:14:05.657Z,59.40
2023-01-10T13:16:32.154Z,59.60
2023-01-10T13:18:58.629Z,59.60
2023-01-10T13:21:25.106Z,59.70
2023-01-10T13:23:51.595Z,59.70
2023-01-10T13:26:18.046Z,59.80
2023-01-10T13:28:44.509Z,59.70
2023-01-10T13:31:10.996Z,59.60
2023-01-10T13:33:37.549Z,59.60
2023-01-10T13:36:04.024Z,59.60
2023-01-10T13:38:30.515Z,59.70
2023-01-10T13:40:57.012Z,59.90
2023-01-10T13:43:23.527Z,59.60
2023-01-10T13:45:50.034Z,59.70
2023-01-10T13:48:16.534Z,59.70
2023-01-10T13:50:43.016Z,59.70
2023-01-10T13:53:09.491Z,59.60
2023-01-10T13:55:35.992Z,59.60
2023-01-10T13:58:02.463Z,59.80
2023-01-10T14:00:28.946Z,59.80
2023-01-10T14:02:55.433Z,59.50
2023-01-10T14:05:24.842Z,59.60
2023-01-10T14:07:51.330Z,59.50
2023-01-10T14:10:17.833Z,59.30
2023-01-10T14:12:44.304Z,59.60
2023-01-10T14:15:10.826Z,59.60
2023-01-10T14:17:37.362Z,59.70
2023-01-10T14:20:03.884Z,59.40
2023-01-10T14:22:31.504Z,59.30
2023-01-10T14:24:57.992Z,59.80
2023-01-10T14:27:24.463Z,59.60
2023-01-10T14:29:50.926Z,59.40
2023-01-10T14:32:17.402Z,59.50
2023-01-10T14:34:43.882Z,59.70
2023-01-10T14:37:10.354Z,59.30
2023-01-10T14:39:36.837Z,59.30
2023-01-10T14:42:03.299Z,59.50
2023-01-10T14:44:29.795Z,59.50
2023-01-10T14:46:56.305Z,59.50
2023-01-10T14:49:22.835Z,59.60
2023-01-10T14:51:49.314Z,59.70
2023-01-10T14:54:15.797Z,59.50
2023-01-10T14:56:42.264Z,59.30
2023-01-10T14:59:08.742Z,59.50
2023-01-10T15:01:37.772Z,59.50
2023-01-10T15:04:04.322Z,59.50
2023-01-10T15:06:30.811Z,59.60
2023-01-10T15:08:57.293Z,59.50
2023-01-10T15:11:23.766Z,59.30
2023-01-10T15:13:50.299Z,59.40
2023-01-10T15:16:16.836Z,59.50
2023-01-10T15:18:43.355Z,59.50
2023-01-10T15:21:09.843Z,59.40
2023-01-10T15:23:36.313Z,59.30
2023-01-10T15:26:02.805Z,59.30
2023-01-10T15:28:29.314Z,59.30
2023-01-10T15:30:55.782Z,59.30
2023-01-10T15:33:22.278Z,59.50
2023-01-10T15:35:48.762Z,59.40
2023-01-10T15:38:15.240Z,59.30
2023-01-10T15:40:41.744Z,59.10
2023-01-10T15:43:08.212Z,59.10
2023-01-10T15:45:34.685Z,59.30
2023-01-10T15:48:01.185Z,59.40
2023-01-10T15:50:27.710Z,59.40
2023-01-10T15:52:54.189Z,59.30
2023-01-10T15:55:20.720Z,59.20
2023-01-10T15:57:47.221Z,59.10
2023-01-10T16:00:13.720Z,59.30
2023-01-10T16:02:40.348Z,59.20
2023-01-10T16:05:06.909Z,59.20
2023-01-10T16:07:33.464Z,59.30
2023-01-10T16:09:59.929Z,59.20
2023-01-10T16:12:26.398Z,59.20
2023-01-10T16:17:36.912Z,59.20
2023-01-10T16:20:03.408Z,59.20
2023-01-10T16:22:29.894Z,59.30
2023-01-10T16:25:07.812Z,58.90
2023-01-10T16:27:34.312Z,59.10
2023-01-10T16:30:00.802Z,58.70
2023-01-10T16:32:27.285Z,59.00
2023-01-10T16:34:53.783Z,59.10
2023-01-10T16:37:20.259Z,58.70
2023-01-10T16:39:46.734Z,59.10
2023-01-10T16:42:13.213Z,59.10
2023-01-10T16:44:39.689Z,59.00
2023-01-10T16:47:07.272Z,58.90
2023-01-10T16:49:33.843Z,59.00
2023-01-10T16:52:00.318Z,58.90
2023-01-10T16:54:26.791Z,59.00
2023-01-10T16:56:53.277Z,59.10
2023-01-10T16:59:19.751Z,59.00
2023-01-10T17:01:46.407Z,59.10
2023-01-10T17:04:13.046Z,59.10
2023-01-10T17:06:43.774Z,59.00
2023-01-10T17:09:10.267Z,59.00
2023-01-10T17:11:36.771Z,58.90
2023-01-10T17:14:07.885Z,59.00
2023-01-10T17:16:34.394Z,59.00
2023-01-10T17:19:00.896Z,59.00
2023-01-10T17:21:27.392Z,59.10
2023-01-10T17:23:53.875Z,59.10
2023-01-10T17:26:20.352Z,59.00
2023-01-10T17:28:46.834Z,58.90
2023-01-10T17:31:13.312Z,58.90
2023-01-10T17:33:39.840Z,59.10
2023-01-10T17:36:06.354Z,59.10
2023-01-10T17:38:32.842Z,59.00
2023-01-10T17:40:59.352Z,59.20
2023-01-10T17:43:25.849Z,59.10
2023-01-10T17:45:52.498Z,59.30
2023-01-10T17:48:19.011Z,59.10
2023-01-10T17:50:49.903Z,58.90
2023-01-10T17:53:16.407Z,58.90
2023-01-10T17:55:42.893Z,59.10
2023-01-10T17:58:09.381Z,59.10
2023-01-10T18:00:35.863Z,59.10
2023-01-10T18:03:02.391Z,59.30
2023-01-10T18:05:31.867Z,59.20
2023-01-10T18:10:49.226Z,59.20
2023-01-10T18:13:15.711Z,59.20
2023-01-10T18:15:42.199Z,59.40
2023-01-10T18:18:08.710Z,59.30
2023-01-10T18:20:35.184Z,59.40
2023-01-10T18:23:04.013Z,59.30
2023-01-10T18:25:31.249Z,59.30
2023-01-10T18:27:57.727Z,59.40
2023-01-10T18:30:24.188Z,59.40
2023-01-10T18:32:50.715Z,59.30
2023-01-10T18:35:17.174Z,59.50
2023-01-10T18:37:43.653Z,59.40
2023-01-10T18:40:10.139Z,59.50
2023-01-10T18:42:36.632Z,59.50
2023-01-10T18:45:07.847Z,59.40
2023-01-10T18:47:34.325Z,59.30
2023-01-10T18:50:00.802Z,59.30
2023-01-10T18:52:27.280Z,59.40
2023-01-10T18:54:53.759Z,59.30
2023-01-10T18:57:20.222Z,59.30
2023-01-10T18:59:46.695Z,59.40
2023-01-10T19:02:13.225Z,59.40
2023-01-10T19:04:39.719Z,59.40
2023-01-10T19:07:07.830Z,59.40
2023-01-10T19:09:34.316Z,59.40
2023-01-10T19:12:00.795Z,59.50
2023-01-10T19:14:27.281Z,59.70
2023-01-10T19:16:53.751Z,59.90
2023-01-10T19:19:20.240Z,59.90
2023-01-10T19:21:46.731Z,60.10
2023-01-10T19:24:13.211Z,60.10
2023-01-10T19:26:39.674Z,60.10
2023-01-10T19:29:06.194Z,60.00
2023-01-10T19:31:32.743Z,60.00
2023-01-10T19:33:59.291Z,59.80
2023-01-10T19:36:25.770Z,60.10
2023-01-10T19:38:52.256Z,60.00
2023-01-10T19:41:18.719Z,60.00
2023-01-10T19:43:45.260Z,60.00
2023-01-10T19:46:11.781Z,59.90
2023-01-10T19:48:38.526Z,60.00
2023-01-10T19:51:05.071Z,59.90
2023-01-10T19:53:31.553Z,59.60
2023-01-10T19:55:58.037Z,59.70
2023-01-10T19:58:24.518Z,59.90
2023-01-10T20:00:51.003Z,60.00
2023-01-10T20:03:17.463Z,60.00
2023-01-10T20:05:43.935Z,59.90
2023-01-10T20:08:10.394Z,60.00
2023-01-10T20:10:36.884Z,60.00
2023-01-10T20:13:03.353Z,60.10
2023-01-10T20:15:29.860Z,60.10
2023-01-10T20:17:56.334Z,59.90
2023-01-10T20:20:22.823Z,60.10
2023-01-10T20:22:49.316Z,60.10
2023-01-10T20:25:15.822Z,60.00
2023-01-10T20:27:42.270Z,60.00
2023-01-10T20:30:08.767Z,60.10
2023-01-10T20:32:35.243Z,60.40
2023-01-10T20:35:01.740Z,60.40
2023-01-10T20:37:28.223Z,60.30
2023-01-10T20:39:54.708Z,60.20
2023-01-10T20:42:21.176Z,60.10
2023-01-10T20:44:47.644Z,60.40
2023-01-10T20:47:14.120Z,60.30
2023-01-10T20:49:40.636Z,60.30
2023-01-10T20:52:07.130Z,60.40
2023-01-10T20:54:33.598Z,60.30
2023-01-10T20:57:00.115Z,60.50
2023-01-10T20:59:26.583Z,60.40
2023-01-10T21:01:53.132Z,60.50
2023-01-10T21:04:19.649Z,60.60
2023-01-10T21:06:46.222Z,60.50
2023-01-10T21:09:12.748Z,60.60
2023-01-10T21:11:56.664Z,60.60
2023-01-10T21:14:25.668Z,60.50
2023-01-10T21:16:52.160Z,60.70
2023-01-10T21:19:19.387Z,60.90
2023-01-10T21:21:45.905Z,60.90
2023-01-10T21:24:12.419Z,60.80
2023-01-10T21:26:39.137Z,60.70
2023-01-10T21:29:05.601Z,61.00
2023-01-10T21:31:32.095Z,61.10
2023-01-10T21:33:58.622Z,61.10
2023-01-10T21:36:25.115Z,60.90
2023-01-10T21:38:51.591Z,60.70
2023-01-10T21:41:18.071Z,60.70
2023-01-10T21:43:44.779Z,60.80
2023-01-10T21:46:11.277Z,60.90
2023-01-10T21:48:43.977Z,60.80
2023-01-10T21:51:10.462Z,60.70
2023-01-10T21:53:36.942Z,60.90
2023-01-10T21:56:03.424Z,61.20
2023-01-10T21:58:29.911Z,61.10
2023-01-10T22:00:56.466Z,61.10
2023-01-10T22:03:38.144Z,61.30
2023-01-10T22:06:04.652Z,61.30
2023-01-10T22:08:31.121Z,61.20
2023-01-10T22:10:57.616Z,61.20
2023-01-10T22:13:24.111Z,61.30
2023-01-10T22:15:50.609Z,61.10
2023-01-10T22:18:17.108Z,61.20
2023-01-10T22:20:43.578Z,61.10
2023-01-10T22:23:10.069Z,61.20
2023-01-10T22:25:36.520Z,61.10
2023-01-10T22:28:03.019Z,61.10
2023-01-10T22:30:29.487Z,61.40
2023-01-10T22:32:55.963Z,61.60
2023-01-10T22:35:26.060Z,61.40
2023-01-10T22:37:52.570Z,61.80
2023-01-10T22:40:19.053Z,61.40
2023-01-10T22:42:45.535Z,61.50
2023-01-10T22:45:12.017Z,61.40
2023-01-10T22:47:38.478Z,61.40
2023-01-10T22:50:04.977Z,61.40
2023-01-10T22:52:31.526Z,61.60
2023-01-10T22:54:58.012Z,61.50
2023-01-10T22:57:24.469Z,61.60
2023-01-10T22:59:50.950Z,61.50
2023-01-10T23:02:17.482Z,61.60
2023-01-10T23:04:43.963Z,61.70
2023-01-10T23:07:10.463Z,61.60
2023-01-10T23:09:36.947Z,61.50
2023-01-10T23:12:03.441Z,61.60
2023-01-10T23:14:29.921Z,61.50
2023-01-10T23:16:56.413Z,61.70
2023-01-10T23:19:22.872Z,61.60
2023-01-10T23:21:49.345Z,61.60
2023-01-10T23:24:15.829Z,61.70
2023-01-10T23:26:44.016Z,61.80
2023-01-10T23:29:10.476Z,62.00
2023-01-10T23:31:36.979Z,63.00
2023-01-10T23:34:03.490Z,62.20
2023-01-10T23:36:29.974Z,62.20
2023-01-10T23:38:56.456Z,62.00
2023-01-10T23:41:22.923Z,62.00
2023-01-10T23:43:49.409Z,62.10
2023-01-10T23:46:16.116Z,62.20
2023-01-10T23:48:42.763Z,62.30
2023-01-10T23:51:09.239Z,62.20
2023-01-10T23:53:35.727Z,62.40
2023-01-10T23:56:02.210Z,62.10
2023-01-10T23:58:28.698Z,62.10
